sensor_id;sensor_type;location;lat;lon;timestamp;P1;durP1;ratioP1;P2;durP2;ratioP2
51692;SDS011;37777;53.066;21.638;2023-06-22T00:00:08;18.00;;;14.80;;
51692;SDS011;37777;53.066;21.638;2023-06-22T00:07:13;19.00;;;14.50;;
51692;SDS011;37777;53.066;21.638;2023-06-22T00:14:15;18.95;;;14.55;;
51692;SDS011;37777;53.066;21.638;2023-06-22T00:21:18;19.77;;;16.02;;
51692;SDS011;37777;53.066;21.638;2023-06-22T00:28:22;18.92;;;14.77;;
51692;SDS011;37777;53.066;21.638;2023-06-22T00:35:24;25.35;;;16.00;;
51692;SDS011;37777;53.066;21.638;2023-06-22T00:42:30;19.67;;;15.90;;
51692;SDS011;37777;53.066;21.638;2023-06-22T00:49:33;19.10;;;14.77;;
51692;SDS011;37777;53.066;21.638;2023-06-22T00:56:35;22.25;;;15.88;;
51692;SDS011;37777;53.066;21.638;2023-06-22T01:03:39;20.13;;;16.15;;
51692;SDS011;37777;53.066;21.638;2023-06-22T01:10:43;19.73;;;16.20;;
51692;SDS011;37777;53.066;21.638;2023-06-22T01:17:49;21.02;;;15.80;;
51692;SDS011;37777;53.066;21.638;2023-06-22T01:25:06;23.33;;;17.80;;
51692;SDS011;37777;53.066;21.638;2023-06-22T01:32:21;22.27;;;15.77;;
51692;SDS011;37777;53.066;21.638;2023-06-22T01:39:23;22.23;;;16.48;;
51692;SDS011;37777;53.066;21.638;2023-06-22T01:46:26;21.65;;;17.23;;
51692;SDS011;37777;53.066;21.638;2023-06-22T01:53:29;23.80;;;16.65;;
51692;SDS011;37777;53.066;21.638;2023-06-22T02:00:35;20.67;;;17.30;;
51692;SDS011;37777;53.066;21.638;2023-06-22T02:07:47;25.25;;;19.20;;
51692;SDS011;37777;53.066;21.638;2023-06-22T02:14:54;22.92;;;16.98;;
51692;SDS011;37777;53.066;21.638;2023-06-22T02:21:57;21.33;;;16.92;;
51692;SDS011;37777;53.066;21.638;2023-06-22T02:28:59;24.80;;;17.65;;
51692;SDS011;37777;53.066;21.638;2023-06-22T02:36:01;25.73;;;17.75;;
51692;SDS011;37777;53.066;21.638;2023-06-22T02:43:06;27.95;;;19.92;;
51692;SDS011;37777;53.066;21.638;2023-06-22T02:50:08;24.08;;;18.45;;
51692;SDS011;37777;53.066;21.638;2023-06-22T02:57:11;27.92;;;18.85;;
51692;SDS011;37777;53.066;21.638;2023-06-22T03:04:15;20.02;;;17.17;;
51692;SDS011;37777;53.066;21.638;2023-06-22T03:11:17;25.35;;;19.33;;
51692;SDS011;37777;53.066;21.638;2023-06-22T03:18:19;24.15;;;19.55;;
51692;SDS011;37777;53.066;21.638;2023-06-22T03:25:23;22.27;;;18.92;;
51692;SDS011;37777;53.066;21.638;2023-06-22T03:32:25;22.63;;;18.35;;
51692;SDS011;37777;53.066;21.638;2023-06-22T03:39:29;25.15;;;19.70;;
51692;SDS011;37777;53.066;21.638;2023-06-22T03:46:33;28.67;;;20.15;;
51692;SDS011;37777;53.066;21.638;2023-06-22T03:53:35;26.63;;;20.50;;
51692;SDS011;37777;53.066;21.638;2023-06-22T04:00:37;26.90;;;20.55;;
51692;SDS011;37777;53.066;21.638;2023-06-22T04:07:39;26.92;;;21.17;;
51692;SDS011;37777;53.066;21.638;2023-06-22T04:14:41;30.00;;;23.77;;
51692;SDS011;37777;53.066;21.638;2023-06-22T04:21:43;32.85;;;24.73;;
51692;SDS011;37777;53.066;21.638;2023-06-22T04:28:46;32.92;;;24.45;;
51692;SDS011;37777;53.066;21.638;2023-06-22T04:35:53;35.00;;;24.75;;
51692;SDS011;37777;53.066;21.638;2023-06-22T04:42:55;35.05;;;27.10;;
51692;SDS011;37777;53.066;21.638;2023-06-22T04:49:57;37.58;;;26.98;;
51692;SDS011;37777;53.066;21.638;2023-06-22T06:11:32;28.02;;;20.30;;
51692;SDS011;37777;53.066;21.638;2023-06-22T06:18:34;29.77;;;19.40;;
51692;SDS011;37777;53.066;21.638;2023-06-22T06:25:36;21.33;;;15.18;;
51692;SDS011;37777;53.066;21.638;2023-06-22T06:32:39;21.55;;;14.55;;
51692;SDS011;37777;53.066;21.638;2023-06-22T06:39:41;17.30;;;15.38;;
51692;SDS011;37777;53.066;21.638;2023-06-22T06:46:45;19.10;;;14.20;;
51692;SDS011;37777;53.066;21.638;2023-06-22T06:53:47;19.50;;;15.65;;
51692;SDS011;37777;53.066;21.638;2023-06-22T07:00:49;18.40;;;16.15;;
51692;SDS011;37777;53.066;21.638;2023-06-22T07:07:51;19.33;;;14.90;;
51692;SDS011;37777;53.066;21.638;2023-06-22T07:15:00;19.05;;;15.73;;
51692;SDS011;37777;53.066;21.638;2023-06-22T07:22:04;19.38;;;15.18;;
51692;SDS011;37777;53.066;21.638;2023-06-22T07:29:06;19.08;;;15.20;;
51692;SDS011;37777;53.066;21.638;2023-06-22T07:36:09;18.63;;;14.35;;
51692;SDS011;37777;53.066;21.638;2023-06-22T07:43:11;20.48;;;13.57;;
51692;SDS011;37777;53.066;21.638;2023-06-22T07:50:13;14.45;;;12.95;;
51692;SDS011;37777;53.066;21.638;2023-06-22T07:57:15;13.82;;;11.68;;
51692;SDS011;37777;53.066;21.638;2023-06-22T08:04:17;14.00;;;12.43;;
51692;SDS011;37777;53.066;21.638;2023-06-22T08:11:19;15.27;;;11.82;;
51692;SDS011;37777;53.066;21.638;2023-06-22T08:18:24;14.23;;;10.93;;
51692;SDS011;37777;53.066;21.638;2023-06-22T08:25:26;11.85;;;10.00;;
51692;SDS011;37777;53.066;21.638;2023-06-22T08:32:29;12.77;;;9.65;;
51692;SDS011;37777;53.066;21.638;2023-06-22T08:39:34;12.75;;;9.38;;
51692;SDS011;37777;53.066;21.638;2023-06-22T08:46:36;13.20;;;9.82;;
51692;SDS011;37777;53.066;21.638;2023-06-22T08:53:40;11.93;;;10.35;;
51692;SDS011;37777;53.066;21.638;2023-06-22T09:00:42;8.55;;;7.72;;
51692;SDS011;37777;53.066;21.638;2023-06-22T09:07:44;11.32;;;9.10;;
51692;SDS011;37777;53.066;21.638;2023-06-22T09:14:51;8.52;;;7.63;;
51692;SDS011;37777;53.066;21.638;2023-06-22T09:21:53;8.57;;;7.65;;
51692;SDS011;37777;53.066;21.638;2023-06-22T09:28:55;8.18;;;7.05;;
51692;SDS011;37777;53.066;21.638;2023-06-22T09:35:57;12.50;;;8.15;;
51692;SDS011;37777;53.066;21.638;2023-06-22T09:42:59;8.73;;;7.70;;
51692;SDS011;37777;53.066;21.638;2023-06-22T09:50:01;13.48;;;7.30;;
51692;SDS011;37777;53.066;21.638;2023-06-22T09:57:03;7.72;;;6.65;;
51692;SDS011;37777;53.066;21.638;2023-06-22T10:04:06;11.85;;;6.93;;
51692;SDS011;37777;53.066;21.638;2023-06-22T10:11:08;7.80;;;7.10;;
51692;SDS011;37777;53.066;21.638;2023-06-22T10:18:10;9.38;;;7.68;;
51692;SDS011;37777;53.066;21.638;2023-06-22T10:25:13;13.38;;;8.30;;
51692;SDS011;37777;53.066;21.638;2023-06-22T10:32:15;8.85;;;7.97;;
51692;SDS011;37777;53.066;21.638;2023-06-22T10:39:17;10.07;;;7.78;;
51692;SDS011;37777;53.066;21.638;2023-06-22T10:46:20;8.30;;;7.50;;
51692;SDS011;37777;53.066;21.638;2023-06-22T10:53:22;10.95;;;8.20;;
51692;SDS011;37777;53.066;21.638;2023-06-22T11:00:24;8.43;;;7.45;;
51692;SDS011;37777;53.066;21.638;2023-06-22T11:07:26;8.02;;;7.22;;
51692;SDS011;37777;53.066;21.638;2023-06-22T11:14:30;11.13;;;6.95;;
51692;SDS011;37777;53.066;21.638;2023-06-22T11:21:32;7.15;;;6.45;;
51692;SDS011;37777;53.066;21.638;2023-06-22T11:28:34;7.20;;;6.60;;
51692;SDS011;37777;53.066;21.638;2023-06-22T11:35:37;9.65;;;6.78;;
51692;SDS011;37777;53.066;21.638;2023-06-22T11:42:39;7.80;;;6.47;;
51692;SDS011;37777;53.066;21.638;2023-06-22T11:49:41;9.25;;;6.38;;
51692;SDS011;37777;53.066;21.638;2023-06-22T11:56:43;8.82;;;5.85;;
51692;SDS011;37777;53.066;21.638;2023-06-22T12:03:45;7.55;;;6.22;;
51692;SDS011;37777;53.066;21.638;2023-06-22T12:10:49;6.82;;;6.18;;
51692;SDS011;37777;53.066;21.638;2023-06-22T12:17:51;9.52;;;6.55;;
51692;SDS011;37777;53.066;21.638;2023-06-22T12:24:53;7.78;;;6.40;;
51692;SDS011;37777;53.066;21.638;2023-06-22T12:31:55;7.55;;;6.82;;
51692;SDS011;37777;53.066;21.638;2023-06-22T12:38:57;6.97;;;6.38;;
51692;SDS011;37777;53.066;21.638;2023-06-22T12:45:59;8.18;;;7.20;;
51692;SDS011;37777;53.066;21.638;2023-06-22T12:53:01;7.65;;;6.40;;
51692;SDS011;37777;53.066;21.638;2023-06-22T13:00:05;8.38;;;6.78;;
51692;SDS011;37777;53.066;21.638;2023-06-22T13:07:10;8.02;;;7.07;;
51692;SDS011;37777;53.066;21.638;2023-06-22T13:14:15;6.72;;;6.03;;
51692;SDS011;37777;53.066;21.638;2023-06-22T13:21:17;7.25;;;6.05;;
51692;SDS011;37777;53.066;21.638;2023-06-22T13:28:19;8.13;;;6.72;;
51692;SDS011;37777;53.066;21.638;2023-06-22T13:35:29;9.63;;;6.30;;
51692;SDS011;37777;53.066;21.638;2023-06-22T13:42:32;6.18;;;5.65;;
51692;SDS011;37777;53.066;21.638;2023-06-22T13:49:34;6.95;;;6.10;;
51692;SDS011;37777;53.066;21.638;2023-06-22T13:56:37;7.25;;;6.00;;
51692;SDS011;37777;53.066;21.638;2023-06-22T14:03:39;6.15;;;5.55;;
51692;SDS011;37777;53.066;21.638;2023-06-22T14:10:42;7.45;;;5.85;;
51692;SDS011;37777;53.066;21.638;2023-06-22T14:17:44;6.63;;;6.03;;
51692;SDS011;37777;53.066;21.638;2023-06-22T14:24:47;6.25;;;5.65;;
51692;SDS011;37777;53.066;21.638;2023-06-22T14:31:49;6.53;;;5.85;;
51692;SDS011;37777;53.066;21.638;2023-06-22T14:38:52;7.13;;;6.35;;
51692;SDS011;37777;53.066;21.638;2023-06-22T14:45:54;6.47;;;5.88;;
51692;SDS011;37777;53.066;21.638;2023-06-22T14:52:56;9.05;;;5.43;;
51692;SDS011;37777;53.066;21.638;2023-06-22T14:59:58;9.80;;;5.50;;
51692;SDS011;37777;53.066;21.638;2023-06-22T15:07:00;10.15;;;5.97;;
51692;SDS011;37777;53.066;21.638;2023-06-22T15:14:03;5.35;;;4.85;;
51692;SDS011;37777;53.066;21.638;2023-06-22T15:21:05;6.10;;;5.50;;
51692;SDS011;37777;53.066;21.638;2023-06-22T15:28:07;6.55;;;5.35;;
51692;SDS011;37777;53.066;21.638;2023-06-22T15:35:11;5.57;;;4.82;;
51692;SDS011;37777;53.066;21.638;2023-06-22T15:42:14;8.75;;;5.45;;
51692;SDS011;37777;53.066;21.638;2023-06-22T15:49:18;5.95;;;4.85;;
51692;SDS011;37777;53.066;21.638;2023-06-22T15:56:22;5.53;;;4.53;;
51692;SDS011;37777;53.066;21.638;2023-06-22T16:03:27;6.60;;;4.43;;
51692;SDS011;37777;53.066;21.638;2023-06-22T16:10:34;4.60;;;4.20;;
51692;SDS011;37777;53.066;21.638;2023-06-22T16:17:39;6.68;;;4.80;;
51692;SDS011;37777;53.066;21.638;2023-06-22T16:24:45;6.65;;;4.90;;
51692;SDS011;37777;53.066;21.638;2023-06-22T16:31:53;5.95;;;5.45;;
51692;SDS011;37777;53.066;21.638;2023-06-22T16:38:57;6.55;;;5.95;;
51692;SDS011;37777;53.066;21.638;2023-06-22T16:46:06;5.05;;;4.75;;
51692;SDS011;37777;53.066;21.638;2023-06-22T16:53:10;5.22;;;4.65;;
51692;SDS011;37777;53.066;21.638;2023-06-22T17:00:13;4.80;;;4.40;;
51692;SDS011;37777;53.066;21.638;2023-06-22T17:07:18;5.15;;;4.75;;
51692;SDS011;37777;53.066;21.638;2023-06-22T17:14:23;6.30;;;4.68;;
51692;SDS011;37777;53.066;21.638;2023-06-22T17:21:26;4.88;;;4.57;;
51692;SDS011;37777;53.066;21.638;2023-06-22T17:35:52;4.90;;;4.50;;
51692;SDS011;37777;53.066;21.638;2023-06-22T17:43:03;6.03;;;4.45;;
51692;SDS011;37777;53.066;21.638;2023-06-22T17:50:07;5.15;;;4.63;;
51692;SDS011;37777;53.066;21.638;2023-06-22T17:57:17;4.88;;;4.47;;
51692;SDS011;37777;53.066;21.638;2023-06-22T18:04:20;5.20;;;4.68;;
51692;SDS011;37777;53.066;21.638;2023-06-22T18:11:22;4.95;;;4.45;;
51692;SDS011;37777;53.066;21.638;2023-06-22T18:18:28;4.70;;;4.28;;
51692;SDS011;37777;53.066;21.638;2023-06-22T18:32:39;7.68;;;4.82;;
51692;SDS011;37777;53.066;21.638;2023-06-22T18:39:42;9.13;;;4.95;;
51692;SDS011;37777;53.066;21.638;2023-06-22T18:46:50;8.00;;;4.30;;
51692;SDS011;37777;53.066;21.638;2023-06-22T18:54:03;7.07;;;4.25;;
51692;SDS011;37777;53.066;21.638;2023-06-22T19:01:15;5.30;;;4.78;;
51692;SDS011;37777;53.066;21.638;2023-06-22T19:08:19;4.55;;;4.15;;
51692;SDS011;37777;53.066;21.638;2023-06-22T19:15:30;8.30;;;4.30;;
51692;SDS011;37777;53.066;21.638;2023-06-22T19:22:54;4.95;;;4.45;;
51692;SDS011;37777;53.066;21.638;2023-06-22T19:29:58;8.13;;;5.65;;
51692;SDS011;37777;53.066;21.638;2023-06-22T19:37:01;6.00;;;5.38;;
51692;SDS011;37777;53.066;21.638;2023-06-22T19:44:03;6.57;;;5.05;;
51692;SDS011;37777;53.066;21.638;2023-06-22T19:51:07;12.13;;;4.75;;
51692;SDS011;37777;53.066;21.638;2023-06-22T19:58:09;7.68;;;4.35;;
51692;SDS011;37777;53.066;21.638;2023-06-22T20:05:15;8.57;;;5.07;;
51692;SDS011;37777;53.066;21.638;2023-06-22T20:12:23;7.03;;;5.13;;
51692;SDS011;37777;53.066;21.638;2023-06-22T20:19:35;11.32;;;4.93;;
51692;SDS011;37777;53.066;21.638;2023-06-22T20:34:01;6.32;;;5.03;;
51692;SDS011;37777;53.066;21.638;2023-06-22T20:41:06;9.32;;;5.38;;
51692;SDS011;37777;53.066;21.638;2023-06-22T20:48:10;6.05;;;5.15;;
51692;SDS011;37777;53.066;21.638;2023-06-22T20:55:15;7.43;;;5.43;;
51692;SDS011;37777;53.066;21.638;2023-06-22T21:02:17;7.57;;;5.50;;
51692;SDS011;37777;53.066;21.638;2023-06-22T21:09:20;7.95;;;5.70;;
51692;SDS011;37777;53.066;21.638;2023-06-22T21:16:23;6.15;;;5.38;;
51692;SDS011;37777;53.066;21.638;2023-06-22T21:23:25;9.93;;;5.57;;
51692;SDS011;37777;53.066;21.638;2023-06-22T21:30:27;7.50;;;5.70;;
51692;SDS011;37777;53.066;21.638;2023-06-22T21:37:29;9.43;;;6.40;;
51692;SDS011;37777;53.066;21.638;2023-06-22T21:44:32;9.70;;;6.80;;
51692;SDS011;37777;53.066;21.638;2023-06-22T21:51:34;16.23;;;8.38;;
51692;SDS011;37777;53.066;21.638;2023-06-22T21:58:37;18.63;;;8.13;;
51692;SDS011;37777;53.066;21.638;2023-06-22T22:05:39;21.63;;;9.23;;
51692;SDS011;37777;53.066;21.638;2023-06-22T22:12:41;20.20;;;9.25;;
51692;SDS011;37777;53.066;21.638;2023-06-22T22:19:44;12.10;;;8.25;;
51692;SDS011;37777;53.066;21.638;2023-06-22T22:26:46;10.52;;;6.55;;
51692;SDS011;37777;53.066;21.638;2023-06-22T22:33:49;10.38;;;7.20;;
51692;SDS011;37777;53.066;21.638;2023-06-22T22:40:51;9.13;;;6.85;;
51692;SDS011;37777;53.066;21.638;2023-06-22T22:47:53;9.93;;;6.78;;
51692;SDS011;37777;53.066;21.638;2023-06-22T22:54:55;21.27;;;7.80;;
51692;SDS011;37777;53.066;21.638;2023-06-22T23:01:57;17.85;;;8.45;;
51692;SDS011;37777;53.066;21.638;2023-06-22T23:08:59;13.02;;;7.72;;
51692;SDS011;37777;53.066;21.638;2023-06-22T23:16:01;22.65;;;10.13;;
51692;SDS011;37777;53.066;21.638;2023-06-22T23:23:04;21.88;;;10.43;;
51692;SDS011;37777;53.066;21.638;2023-06-22T23:30:06;26.00;;;11.73;;
51692;SDS011;37777;53.066;21.638;2023-06-22T23:37:12;11.70;;;7.00;;
51692;SDS011;37777;53.066;21.638;2023-06-22T23:44:19;8.73;;;6.40;;
51692;SDS011;37777;53.066;21.638;2023-06-22T23:51:21;14.10;;;7.30;;
51692;SDS011;37777;53.066;21.638;2023-06-22T23:58:24;7.88;;;6.65;;
